Time;durP1;ratioP1;P1;durP2;ratioP2;P2;SDS_P1;SDS_P2;PMS_P1;PMS_P2;Temp;Humidity;BMP_temperature;BMP_pressure;BME280_temperature;BME280_humidity;BME280_pressure;Samples;Min_cycle;Max_cycle;Signal;HPM_P1;HPM_P2
2021/03/01 00:01:43;;;;;;;11.60;3.70;;;10.90;53.10;;;;;;5053719;28;20392;-77
2021/03/01 00:04:48;;;;;;;5.88;3.22;;;11.10;52.50;;;;;;5052506;28;20507;-77
2021/03/01 00:07:52;;;;;;;11.15;3.78;;;11.20;51.80;;;;;;5053342;28;20048;-78
2021/03/01 00:10:56;;;;;;;7.97;2.88;;;11.20;52.10;;;;;;5052881;28;20595;-78
2021/03/01 00:14:00;;;;;;;8.02;2.60;;;11.20;51.90;;;;;;5052362;28;20048;-78
2021/03/01 00:17:04;;;;;;;4.93;2.70;;;11.10;52.70;;;;;;5053221;28;20040;-77
2021/03/01 00:20:11;;;;;;;8.43;2.70;;;11.10;52.50;;;;;;5053083;28;20052;-77
2021/03/01 00:23:15;;;;;;;6.22;2.70;;;11.10;52.70;;;;;;5052184;28;20052;-78
2021/03/01 00:26:19;;;;;;;12.10;3.33;;;11.10;52.70;;;;;;5052911;28;20048;-78
2021/03/01 00:29:23;;;;;;;4.95;2.78;;;11.10;52.60;;;;;;5050843;28;20056;-77
2021/03/01 00:32:27;;;;;;;7.78;2.83;;;11.10;52.70;;;;;;5051879;28;20416;-77
2021/03/01 00:35:31;;;;;;;7.50;3.05;;;11.00;53.10;;;;;;5052631;28;20036;-78
2021/03/01 00:38:35;;;;;;;10.00;2.92;;;11.10;53.40;;;;;;5052463;28;20048;-78
2021/03/01 00:41:39;;;;;;;10.27;3.67;;;11.10;53.10;;;;;;5052577;28;20044;-78
2021/03/01 00:44:43;;;;;;;8.82;2.80;;;11.10;53.30;;;;;;5051735;28;20056;-78
2021/03/01 00:47:47;;;;;;;12.40;3.30;;;11.00;53.50;;;;;;5052704;28;20060;-78
2021/03/01 00:50:51;;;;;;;7.82;2.88;;;11.10;53.80;;;;;;5052122;28;20056;-78
2021/03/01 00:53:56;;;;;;;11.52;2.95;;;11.10;53.40;;;;;;5052514;28;20511;-78
2021/03/01 00:57:01;;;;;;;9.65;2.63;;;11.10;53.30;;;;;;5040163;28;20048;-77
2021/03/01 01:00:10;;;;;;;5.55;3.10;;;11.00;53.50;;;;;;5051647;28;20143;-78
2021/03/01 01:03:17;;;;;;;7.60;2.70;;;11.00;53.70;;;;;;5052239;28;20051;-78
2021/03/01 01:06:32;;;;;;;12.13;3.33;;;11.10;53.90;;;;;;5051501;28;20048;-77
2021/03/01 01:09:36;;;;;;;9.20;3.08;;;11.00;54.00;;;;;;5051776;28;20539;-77
2021/03/01 01:12:40;;;;;;;8.95;2.90;;;11.00;54.40;;;;;;5051776;28;20048;-78
2021/03/01 01:15:44;;;;;;;9.60;2.92;;;10.90;54.90;;;;;;5051839;28;20040;-78
2021/03/01 01:18:51;;;;;;;9.35;2.58;;;10.80;55.20;;;;;;5051945;28;20047;-78
2021/03/01 01:21:54;;;;;;;5.63;2.65;;;10.80;55.50;;;;;;5051769;28;20400;-78
2021/03/01 01:24:58;;;;;;;12.18;3.45;;;10.80;55.60;;;;;;5052038;28;20048;-78
2021/03/01 01:28:02;;;;;;;10.82;2.90;;;10.70;55.70;;;;;;5051434;28;20095;-78
2021/03/01 01:31:06;;;;;;;9.65;3.28;;;10.70;55.90;;;;;;5051359;28;20047;-78
2021/03/01 01:34:10;;;;;;;6.85;2.90;;;10.70;55.70;;;;;;5051804;28;20048;-78
2021/03/01 01:37:14;;;;;;;7.25;2.85;;;10.70;55.90;;;;;;5051478;28;20044;-78
2021/03/01 01:40:20;;;;;;;10.38;3.75;;;10.70;55.50;;;;;;5051557;28;20048;-78
2021/03/01 01:43:24;;;;;;;7.75;3.55;;;10.70;55.40;;;;;;5051680;28;20048;-78
2021/03/01 01:46:28;;;;;;;6.65;3.22;;;10.70;55.20;;;;;;5051329;28;20032;-78
2021/03/01 01:49:33;;;;;;;10.20;3.53;;;10.70;54.90;;;;;;5051155;28;20108;-78
2021/03/01 01:52:40;;;;;;;7.30;3.28;;;10.80;54.60;;;;;;5051032;28;20408;-78
2021/03/01 01:55:45;;;;;;;12.85;3.67;;;10.70;54.20;;;;;;5051343;28;20412;-78
2021/03/01 01:58:49;;;;;;;9.27;3.33;;;10.80;54.20;;;;;;5051266;28;20055;-76
2021/03/01 02:01:54;;;;;;;10.23;3.35;;;10.80;52.90;;;;;;5050505;28;20048;-76
2021/03/01 02:05:02;;;;;;;6.45;2.95;;;10.80;53.50;;;;;;5051317;28;20048;-76
2021/03/01 02:08:15;;;;;;;9.10;3.70;;;10.90;53.30;;;;;;5050921;28;20511;-76
2021/03/01 02:11:46;;;;;;;8.93;3.28;;;10.80;53.10;;;;;;5051146;28;20511;-76
2021/03/01 02:15:05;;;;;;;8.38;3.15;;;10.80;53.00;;;;;;5053520;28;20056;-77
2021/03/01 02:18:10;;;;;;;5.50;2.80;;;10.80;52.40;;;;;;5038916;28;20040;-76
2021/03/01 02:21:15;;;;;;;10.60;3.13;;;10.90;52.40;;;;;;5051067;28;20051;-76
2021/03/01 02:24:28;;;;;;;8.15;2.70;;;10.80;52.00;;;;;;5050795;28;20044;-76
2021/03/01 02:27:54;;;;;;;7.32;3.33;;;10.70;52.50;;;;;;5051020;28;20048;-77
2021/03/01 02:31:01;;;;;;;7.72;3.03;;;10.70;52.80;;;;;;5050793;28;20071;-77
2021/03/01 02:34:07;;;;;;;7.40;2.92;;;10.80;52.70;;;;;;5050921;28;20051;-77
2021/03/01 02:37:19;;;;;;;9.02;3.10;;;10.80;52.60;;;;;;5049851;28;20036;-77
2021/03/01 02:40:24;;;;;;;11.52;3.70;;;10.80;53.00;;;;;;5050631;28;20043;-77
2021/03/01 02:43:30;;;;;;;9.93;3.13;;;10.70;52.80;;;;;;5050549;28;20499;-77
2021/03/01 02:46:36;;;;;;;11.50;3.50;;;10.70;52.60;;;;;;5051020;28;20515;-77
2021/03/01 02:49:43;;;;;;;10.63;3.00;;;10.70;52.70;;;;;;5050481;28;20048;-77
2021/03/01 02:52:50;;;;;;;7.68;3.45;;;10.70;52.60;;;;;;5051031;28;20052;-77
2021/03/01 02:55:54;;;;;;;11.52;3.95;;;10.70;52.40;;;;;;5054771;28;20044;-77
2021/03/01 02:59:00;;;;;;;10.95;3.97;;;10.70;52.40;;;;;;5054724;28;20526;-77
2021/03/01 03:02:05;;;;;;;9.30;4.13;;;10.60;52.20;;;;;;5054563;28;20048;-77
2021/03/01 03:05:11;;;;;;;7.57;2.97;;;10.60;52.50;;;;;;5054168;28;20063;-76
2021/03/01 03:08:17;;;;;;;9.10;3.13;;;10.50;52.90;;;;;;5054296;28;20047;-76
2021/03/01 03:11:24;;;;;;;12.75;3.70;;;10.50;53.20;;;;;;5054391;28;20055;-76
2021/03/01 03:14:30;;;;;;;8.75;3.03;;;10.50;53.00;;;;;;5054063;28;20058;-78
2021/03/01 03:17:34;;;;;;;6.07;2.58;;;10.50;53.20;;;;;;5054540;28;20491;-77
2021/03/01 03:20:39;;;;;;;9.95;3.72;;;10.50;53.60;;;;;;5053082;28;20044;-77
2021/03/01 03:23:43;;;;;;;8.63;2.85;;;10.50;53.40;;;;;;5054245;28;20048;-77
2021/03/01 03:26:47;;;;;;;7.50;2.67;;;10.40;53.70;;;;;;5054154;28;20048;-77
2021/03/01 03:29:51;;;;;;;13.77;3.20;;;10.40;54.00;;;;;;5053711;28;20052;-77
2021/03/01 03:32:55;;;;;;;8.57;2.88;;;10.40;54.20;;;;;;5053588;28;20056;-77
2021/03/01 03:36:01;;;;;;;8.13;2.60;;;10.50;54.00;;;;;;5054158;28;20067;-77
2021/03/01 03:39:11;;;;;;;7.05;2.83;;;10.50;54.20;;;;;;5054044;28;20043;-77
2021/03/01 03:42:21;;;;;;;5.65;2.83;;;10.60;53.40;;;;;;5053882;28;20396;-77
2021/03/01 03:45:26;;;;;;;8.95;3.40;;;10.50;53.60;;;;;;5053736;28;20040;-77
2021/03/01 03:48:31;;;;;;;9.07;3.80;;;10.60;53.00;;;;;;5053009;28;20056;-76
2021/03/01 03:51:35;;;;;;;8.35;2.90;;;10.60;52.20;;;;;;5053667;28;20044;-77
2021/03/01 03:54:42;;;;;;;10.90;2.92;;;10.60;52.40;;;;;;5052941;28;20059;-77
2021/03/01 03:57:53;;;;;;;8.45;2.78;;;10.50;52.10;;;;;;5052822;28;20041;-77
2021/03/01 04:00:59;;;;;;;;;;;10.60;52.20;;;;;;5053055;28;20499;-77
2021/03/01 04:04:06;;;;;;;4.53;2.60;;;10.60;51.60;;;;;;5053517;28;19923;-77
2021/03/01 04:07:14;;;;;;;7.20;3.15;;;10.60;51.90;;;;;;5053860;28;20048;-77
2021/03/01 04:10:18;;;;;;;6.63;3.15;;;10.60;53.10;;;;;;5053325;28;20044;-77
2021/03/01 04:13:26;;;;;;;8.55;3.50;;;10.50;54.70;;;;;;5052843;28;20059;-77
2021/03/01 04:16:32;;;;;;;8.88;4.07;;;10.30;56.10;;;;;;5053704;28;20044;-77
2021/03/01 04:19:38;;;;;;;19.75;4.50;;;10.30;57.30;;;;;;5053438;28;20052;-77
2021/03/01 04:22:43;;;;;;;6.63;3.65;;;10.10;58.00;;;;;;5052194;28;20396;-77
2021/03/01 04:25:48;;;;;;;10.23;5.28;;;10.00;58.20;;;;;;5052368;28;20048;-77
2021/03/01 04:28:53;;;;;;;14.77;4.88;;;9.90;59.60;;;;;;5052573;28;20036;-77
2021/03/01 04:31:58;;;;;;;12.43;4.95;;;9.90;59.60;;;;;;5052617;28;20044;-77
2021/03/01 04:35:07;;;;;;;13.68;5.38;;;9.80;59.80;;;;;;5052987;28;20048;-77
2021/03/01 04:38:12;;;;;;;13.15;7.32;;;9.70;60.90;;;;;;5052606;28;20036;-77
2021/03/01 04:41:16;;;;;;;13.00;6.20;;;9.60;61.50;;;;;;5053021;28;20051;-77
2021/03/01 04:44:21;;;;;;;39.83;13.27;;;9.60;61.50;;;;;;5053348;28;20052;-77
2021/03/01 04:47:29;;;;;;;21.45;6.25;;;9.50;62.30;;;;;;5053211;28;20032;-77
2021/03/01 04:50:34;;;;;;;15.73;5.93;;;9.50;62.30;;;;;;5053016;28;20125;-77
2021/03/01 04:53:39;;;;;;;15.93;6.35;;;9.40;61.10;;;;;;5052515;28;20603;-77
2021/03/01 04:56:44;;;;;;;16.60;6.00;;;9.30;62.20;;;;;;5052428;28;20104;-77
2021/03/01 04:59:49;;;;;;;14.75;5.45;;;9.20;61.50;;;;;;5052690;28;20044;-77
2021/03/01 05:02:54;;;;;;;19.65;5.80;;;9.20;61.30;;;;;;5052813;28;20499;-77
2021/03/01 05:06:01;;;;;;;17.08;5.50;;;9.20;62.00;;;;;;5052222;28;20051;-77
2021/03/01 05:09:06;;;;;;;9.55;4.93;;;9.20;60.70;;;;;;5052358;28;20044;-77
2021/03/01 05:12:10;;;;;;;11.70;5.40;;;9.20;59.00;;;;;;5052346;28;20049;-78
2021/03/01 05:15:14;;;;;;;15.07;5.60;;;9.30;60.20;;;;;;5052337;28;20052;-77
2021/03/01 05:18:18;;;;;;;12.57;5.80;;;9.30;61.20;;;;;;5051827;28;20499;-77
2021/03/01 05:21:23;;;;;;;15.02;5.07;;;9.20;61.90;;;;;;5052426;28;20060;-77
2021/03/01 05:24:27;;;;;;;12.48;5.20;;;9.20;61.20;;;;;;5052622;28;20044;-77
2021/03/01 05:27:33;;;;;;;16.80;5.63;;;9.30;60.30;;;;;;5053494;28;20039;-77
2021/03/01 05:30:37;;;;;;;7.93;4.22;;;9.30;61.20;;;;;;5051935;28;20051;-77
2021/03/01 05:33:42;;;;;;;15.02;4.18;;;9.30;57.90;;;;;;5051829;28;20053;-77
2021/03/01 05:36:49;;;;;;;8.40;3.60;;;9.40;57.00;;;;;;5052044;28;20380;-77
2021/03/01 05:39:54;;;;;;;7.63;3.80;;;9.50;56.60;;;;;;5052474;28;20045;-77
2021/03/01 05:43:00;;;;;;;9.50;3.75;;;9.70;57.40;;;;;;5051750;28;20036;-78
2021/03/01 05:46:04;;;;;;;10.95;3.80;;;9.70;56.70;;;;;;5052251;28;20040;-79
2021/03/01 05:49:09;;;;;;;11.90;5.32;;;9.70;57.30;;;;;;5052320;28;20522;-78
2021/03/01 05:52:17;;;;;;;16.95;6.65;;;9.70;59.00;;;;;;5051367;28;20060;-78
2021/03/01 05:55:22;;;;;;;27.42;7.72;;;9.80;58.90;;;;;;5051325;28;20507;-77
2021/03/01 05:58:29;;;;;;;23.13;6.10;;;9.70;59.80;;;;;;5051437;28;20044;-77
2021/03/01 06:01:33;;;;;;;20.52;6.78;;;9.60;60.10;;;;;;5051467;28;20044;-77
2021/03/01 06:04:39;;;;;;;24.35;10.77;;;9.60;61.10;;;;;;5052488;28;20036;-77
2021/03/01 06:07:45;;;;;;;30.25;11.18;;;9.70;61.90;;;;;;5051514;28;20048;-77
2021/03/01 06:10:54;;;;;;;29.70;12.30;;;9.70;62.10;;;;;;5051117;28;20044;-77
2021/03/01 06:14:05;;;;;;;39.72;13.43;;;9.90;62.20;;;;;;5051076;28;20055;-77
2021/03/01 06:17:14;;;;;;;34.63;14.73;;;9.90;62.20;;;;;;5051394;28;20052;-77
2021/03/01 06:20:21;;;;;;;33.45;13.13;;;10.20;62.30;;;;;;5051152;28;20052;-77
2021/03/01 06:23:33;;;;;;;22.35;10.90;;;11.10;59.30;;;;;;5050013;28;20048;-78
2021/03/01 06:26:38;;;;;;;36.03;12.60;;;12.20;56.90;;;;;;5051169;28;20048;-77
2021/03/01 06:30:11;;;;;;;37.20;14.68;;;13.10;52.60;;;;;;5053917;28;20048;-77
2021/03/01 06:33:17;;;;;;;30.52;13.88;;;13.60;50.70;;;;;;5054936;28;20527;-78
2021/03/01 06:36:21;;;;;;;31.58;14.13;;;14.00;50.10;;;;;;5054929;28;20040;-78
2021/03/01 06:39:29;;;;;;;23.10;10.48;;;14.40;49.10;;;;;;5055210;28;20048;-77
2021/03/01 06:42:33;;;;;;;13.68;4.80;;;14.60;49.10;;;;;;5055041;28;20052;-78
2021/03/01 06:45:37;;;;;;;7.97;4.18;;;14.80;49.40;;;;;;5055078;28;20507;-77
2021/03/01 06:48:41;;;;;;;8.65;3.92;;;15.00;49.70;;;;;;5054769;28;20048;-76
2021/03/01 06:51:47;;;;;;;12.93;3.70;;;14.90;49.90;;;;;;5054826;28;20056;-77
2021/03/01 06:54:51;;;;;;;10.98;4.28;;;14.90;50.50;;;;;;5054945;28;20044;-76
2021/03/01 06:57:55;;;;;;;18.40;4.80;;;14.90;50.90;;;;;;5053668;28;20044;-77
2021/03/01 07:01:13;;;;;;;13.23;4.95;;;14.60;52.00;;;;;;5054696;28;20052;-77
2021/03/01 07:04:24;;;;;;;11.13;4.20;;;14.60;52.00;;;;;;5053488;28;20052;-77
2021/03/01 07:07:38;;;;;;;;;;;14.40;52.60;;;;;;5053789;28;20048;-78
2021/03/01 07:10:42;;;;;;;8.55;4.43;;;14.60;53.00;;;;;;5054364;28;19915;-78
2021/03/01 07:13:47;;;;;;;10.05;4.32;;;14.80;51.10;;;;;;5029987;28;20051;-78
2021/03/01 07:16:57;;;;;;;10.20;4.30;;;14.80;51.50;;;;;;5054171;28;20044;-78
2021/03/01 07:20:02;;;;;;;14.27;6.40;;;14.80;51.20;;;;;;5053329;28;20048;-78
2021/03/01 07:23:07;;;;;;;29.35;16.10;;;14.50;50.90;;;;;;5053990;28;20043;-77
2021/03/01 07:26:14;;;;;;;13.07;5.30;;;14.70;51.30;;;;;;5054137;28;20068;-75
2021/03/01 07:29:20;;;;;;;15.30;4.82;;;14.40;51.40;;;;;;5029686;28;20060;-75
2021/03/01 07:32:27;;;;;;;17.42;6.03;;;14.40;51.40;;;;;;5053256;28;20060;-78
2021/03/01 07:35:32;;;;;;;10.88;5.32;;;14.40;52.00;;;;;;5052629;28;20052;-77
2021/03/01 07:38:38;;;;;;;13.85;5.20;;;14.60;51.00;;;;;;5053254;28;20044;-78
2021/03/01 07:41:43;;;;;;;14.65;4.93;;;14.60;50.60;;;;;;5052990;28;20052;-78
2021/03/01 07:44:51;;;;;;;22.02;6.03;;;14.70;50.50;;;;;;5041651;28;20052;-78
2021/03/01 07:48:00;;;;;;;19.63;5.22;;;14.80;50.10;;;;;;5052645;28;20052;-78
2021/03/01 07:51:04;;;;;;;11.88;4.78;;;14.90;50.10;;;;;;5053603;28;20392;-78
2021/03/01 07:54:09;;;;;;;13.00;4.93;;;15.00;49.30;;;;;;5053040;28;20052;-78
2021/03/01 07:57:13;;;;;;;12.35;4.57;;;14.90;50.00;;;;;;5053247;28;20044;-78
2021/03/01 08:00:24;;;;;;;19.13;4.70;;;15.20;50.40;;;;;;5052466;28;20044;-78
2021/03/01 08:03:36;;;;;;;17.80;5.60;;;15.50;49.10;;;;;;5052662;28;20032;-77
2021/03/01 08:06:57;;;;;;;11.93;5.07;;;15.50;48.20;;;;;;5053872;28;20040;-78
2021/03/01 08:10:02;;;;;;;16.92;5.72;;;15.50;47.50;;;;;;5052324;28;20389;-77
2021/03/01 08:13:10;;;;;;;14.63;5.45;;;15.70;47.90;;;;;;5052230;28;20047;-77
2021/03/01 08:16:23;;;;;;;22.55;5.57;;;15.40;47.50;;;;;;5053268;28;20583;-77
2021/03/01 08:19:40;;;;;;;16.38;5.78;;;15.40;47.60;;;;;;5052355;28;20111;-78
2021/03/01 08:23:05;;;;;;;14.98;5.05;;;15.70;48.10;;;;;;5052895;28;20104;-77
2021/03/01 08:26:09;;;;;;;17.52;5.57;;;15.60;47.10;;;;;;5052207;28;20511;-77
2021/03/01 08:29:17;;;;;;;18.95;5.90;;;15.70;47.60;;;;;;5052908;28;20063;-78
2021/03/01 08:32:21;;;;;;;20.83;5.57;;;15.90;47.60;;;;;;5052670;28;20052;-78
2021/03/01 08:35:25;;;;;;;17.25;7.00;;;16.00;47.30;;;;;;5051907;28;20055;-78
2021/03/01 08:38:47;;;;;;;15.23;8.13;;;16.10;46.20;;;;;;5052093;28;20043;-78
2021/03/01 08:41:51;;;;;;;13.93;6.22;;;15.80;46.20;;;;;;5052785;28;20048;-77
2021/03/01 08:44:56;;;;;;;17.52;6.13;;;15.80;46.50;;;;;;5052467;28;20051;-78
2021/03/01 08:48:01;;;;;;;12.02;5.68;;;15.70;46.80;;;;;;5052612;28;20389;-78
2021/03/01 08:51:06;;;;;;;18.83;6.18;;;15.80;47.50;;;;;;5051615;28;20052;-78
2021/03/01 08:54:10;;;;;;;15.30;6.72;;;15.90;47.70;;;;;;5052355;28;20060;-77
2021/03/01 08:57:18;;;;;;;16.20;5.70;;;16.30;46.70;;;;;;5052266;28;20396;-78
2021/03/01 09:00:28;;;;;;;17.00;6.73;;;16.30;45.90;;;;;;5051674;28;20040;-78
2021/03/01 09:03:40;;;;;;;15.30;6.40;;;16.40;46.60;;;;;;5052135;28;20044;-79
2021/03/01 09:06:46;;;;;;;23.58;7.68;;;16.50;46.30;;;;;;5051498;28;20404;-78
2021/03/01 09:09:51;;;;;;;14.43;6.45;;;16.60;46.20;;;;;;5052060;28;20400;-78
2021/03/01 09:12:55;;;;;;;11.95;5.63;;;16.70;44.80;;;;;;5051704;28;20559;-78
2021/03/01 09:16:04;;;;;;;17.83;6.70;;;16.70;44.20;;;;;;5052184;28;20040;-78
2021/03/01 09:19:14;;;;;;;17.08;7.18;;;16.80;44.50;;;;;;5051905;28;20051;-78
2021/03/01 09:22:20;;;;;;;18.23;7.28;;;16.90;44.80;;;;;;5051764;28;20040;-78
2021/03/01 09:25:32;;;;;;;14.85;6.60;;;16.90;44.80;;;;;;5051929;28;20048;-78
2021/03/01 09:28:39;;;;;;;19.05;7.00;;;16.90;44.20;;;;;;5051495;28;20056;-78
2021/03/01 09:31:49;;;;;;;21.65;7.30;;;16.90;44.50;;;;;;5051301;28;20068;-78
2021/03/01 09:34:53;;;;;;;18.70;7.22;;;17.00;44.90;;;;;;5050652;28;20056;-78
2021/03/01 09:38:00;;;;;;;22.33;6.20;;;17.10;42.50;;;;;;5051379;28;20032;-78
2021/03/01 09:41:14;;;;;;;15.23;5.85;;;17.10;42.40;;;;;;5051325;28;20053;-78
2021/03/01 09:44:31;;;;;;;13.77;6.35;;;17.30;43.30;;;;;;5051727;28;20056;-78
2021/03/01 09:47:35;;;;;;;13.63;5.97;;;17.60;41.80;;;;;;5050389;28;20064;-79
2021/03/01 09:50:40;;;;;;;13.02;5.65;;;17.70;41.20;;;;;;5051454;28;20044;-79
2021/03/01 09:53:45;;;;;;;14.75;6.32;;;18.00;42.20;;;;;;5050952;28;20052;-78
2021/03/01 09:56:53;;;;;;;14.05;6.25;;;18.30;40.90;;;;;;5051026;28;20048;-79
2021/03/01 09:59:57;;;;;;;16.40;7.07;;;18.50;41.40;;;;;;5051154;28;20076;-79
2021/03/01 10:03:04;;;;;;;14.68;6.50;;;18.60;40.80;;;;;;5050187;28;20596;-76
2021/03/01 10:06:10;;;;;;;15.50;6.40;;;18.80;39.80;;;;;;5051409;28;20396;-77
2021/03/01 10:09:14;;;;;;;15.63;6.90;;;19.00;39.60;;;;;;5051121;28;20048;-76
2021/03/01 10:12:20;;;;;;;16.48;7.30;;;19.10;39.20;;;;;;5050757;28;20048;-75
2021/03/01 10:15:24;;;;;;;26.15;8.45;;;18.60;39.20;;;;;;5050936;28;20043;-76
2021/03/01 10:18:30;;;;;;;19.08;7.65;;;18.40;39.40;;;;;;5050282;28;20048;-77
2021/03/01 10:21:34;;;;;;;14.82;6.60;;;18.60;40.10;;;;;;5049779;28;20055;-77
2021/03/01 10:24:46;;;;;;;16.13;6.55;;;18.90;39.90;;;;;;5050731;28;20040;-75
2021/03/01 10:27:50;;;;;;;14.88;6.85;;;19.10;38.90;;;;;;5049718;28;20059;-77
2021/03/01 10:31:06;;;;;;;17.45;7.03;;;19.30;39.00;;;;;;5050593;28;20130;-77
2021/03/01 10:34:15;;;;;;;10.55;5.88;;;19.50;39.10;;;;;;5050562;28;20083;-76
2021/03/01 10:37:26;;;;;;;17.00;7.10;;;19.60;39.20;;;;;;5050748;28;20483;-76
2021/03/01 10:40:30;;;;;;;14.07;7.20;;;19.50;37.90;;;;;;5050566;28;20472;-78
2021/03/01 10:43:34;;;;;;;22.50;8.15;;;19.30;38.50;;;;;;5050731;28;20044;-78
2021/03/01 10:46:48;;;;;;;19.05;7.32;;;19.10;37.80;;;;;;5050965;28;20059;-79
2021/03/01 10:49:59;;;;;;;16.27;6.45;;;19.00;39.20;;;;;;5050633;28;20048;-77
2021/03/01 10:53:03;;;;;;;17.50;7.32;;;19.20;40.10;;;;;;5050393;28;20047;-77
2021/03/01 10:56:07;;;;;;;13.77;7.03;;;19.30;38.40;;;;;;5050447;28;20040;-78
2021/03/01 10:59:11;;;;;;;15.68;7.90;;;19.00;38.80;;;;;;5050652;28;20047;-78
2021/03/01 11:02:15;;;;;;;12.93;6.70;;;18.90;38.40;;;;;;5050701;28;20044;-79
2021/03/01 11:05:19;;;;;;;19.67;7.25;;;18.80;38.80;;;;;;5051118;28;20048;-77
2021/03/01 11:08:23;;;;;;;14.77;6.60;;;18.90;38.90;;;;;;5049932;28;20048;-78
2021/03/01 11:11:28;;;;;;;16.98;6.50;;;19.00;38.00;;;;;;5050256;28;20068;-79
2021/03/01 11:14:33;;;;;;;14.48;6.18;;;19.20;38.70;;;;;;5052072;28;20048;-77
2021/03/01 11:17:37;;;;;;;14.50;6.75;;;19.30;38.60;;;;;;5054339;28;20047;-78
2021/03/01 11:20:40;;;;;;;12.25;5.80;;;19.40;38.90;;;;;;5054097;28;20099;-76
2021/03/01 11:23:45;;;;;;;15.13;6.30;;;19.40;38.80;;;;;;5054081;28;20361;-77
2021/03/01 11:26:51;;;;;;;21.73;6.55;;;19.50;39.80;;;;;;5052975;28;20040;-77
2021/03/01 11:29:55;;;;;;;12.50;5.80;;;19.50;38.70;;;;;;5053595;28;20052;-78
2021/03/01 11:32:59;;;;;;;17.42;5.90;;;19.50;39.60;;;;;;5053744;28;20515;-79
2021/03/01 11:36:03;;;;;;;12.13;5.82;;;19.50;40.30;;;;;;5053925;28;20071;-77
2021/03/01 11:39:10;;;;;;;13.15;5.78;;;19.50;39.00;;;;;;5053182;28;20044;-77
2021/03/01 11:42:14;;;;;;;14.90;6.32;;;19.30;38.10;;;;;;5054107;28;20052;-77
2021/03/01 11:45:18;;;;;;;12.23;5.95;;;19.20;38.90;;;;;;5052794;28;20048;-78
2021/03/01 11:48:22;;;;;;;15.15;6.32;;;19.00;37.80;;;;;;5053956;28;20068;-77
2021/03/01 11:51:26;;;;;;;13.68;6.80;;;18.80;38.70;;;;;;5052858;28;20056;-77
2021/03/01 11:54:30;;;;;;;10.07;5.65;;;18.70;39.10;;;;;;5053410;28;20052;-78
2021/03/01 11:57:36;;;;;;;10.45;5.50;;;18.70;42.00;;;;;;5053258;28;20048;-78
2021/03/01 12:00:42;;;;;;;18.00;7.43;;;18.70;42.10;;;;;;5052327;28;20056;-77
2021/03/01 12:03:46;;;;;;;13.85;6.20;;;18.70;39.20;;;;;;5053315;28;20044;-77
2021/03/01 12:06:50;;;;;;;17.83;6.47;;;18.70;40.10;;;;;;5053349;28;20055;-78
2021/03/01 12:09:54;;;;;;;17.10;6.75;;;18.60;39.50;;;;;;5051337;28;20066;-78
2021/03/01 12:12:58;;;;;;;14.77;7.07;;;18.70;40.40;;;;;;5053053;28;20044;-77
2021/03/01 12:16:02;;;;;;;21.45;7.18;;;18.60;40.70;;;;;;5053463;28;20048;-75
2021/03/01 12:19:07;;;;;;;18.67;7.53;;;18.60;41.00;;;;;;5053226;28;20059;-73
2021/03/01 12:22:16;;;;;;;18.75;10.20;;;18.40;46.00;;;;;;5053131;28;20052;-73
2021/03/01 12:25:20;;;;;;;29.00;13.90;;;18.40;50.80;;;;;;5051865;28;20056;-75
2021/03/01 12:28:24;;;;;;;16.88;9.68;;;18.30;47.70;;;;;;5052814;28;20063;-73
2021/03/01 12:31:28;;;;;;;19.33;9.73;;;18.40;47.80;;;;;;5051977;28;20044;-74
2021/03/01 12:34:33;;;;;;;15.93;9.55;;;18.40;46.10;;;;;;5052724;28;20048;-74
2021/03/01 12:37:37;;;;;;;17.02;8.98;;;18.40;44.90;;;;;;5052764;28;20652;-74
2021/03/01 12:40:41;;;;;;;20.05;8.70;;;18.40;44.70;;;;;;5052868;28;20051;-76
2021/03/01 12:43:46;;;;;;;14.75;8.10;;;18.40;44.70;;;;;;5052651;28;20044;-75
2021/03/01 12:46:50;;;;;;;17.63;7.32;;;18.40;44.00;;;;;;5052523;28;20051;-75
2021/03/01 12:49:54;;;;;;;16.35;9.10;;;18.40;44.00;;;;;;5052794;28;20049;-74
2021/03/01 12:52:58;;;;;;;15.82;7.43;;;18.40;44.20;;;;;;5052592;28;20523;-74
2021/03/01 12:56:03;;;;;;;12.23;5.50;;;18.40;43.10;;;;;;5052223;28;20056;-75
2021/03/01 12:59:07;;;;;;;37.33;21.35;;;18.40;39.40;;;;;;5052496;28;20044;-74
2021/03/01 13:02:11;;;;;;;23.50;12.77;;;18.40;39.80;;;;;;5052425;28;20064;-73
2021/03/01 13:05:15;;;;;;;14.18;6.75;;;18.40;40.50;;;;;;5052107;28;20396;-73
2021/03/01 13:08:20;;;;;;;13.27;7.05;;;18.40;39.80;;;;;;5052263;28;20047;-74
2021/03/01 13:11:24;;;;;;;11.05;6.72;;;18.40;38.20;;;;;;5051967;28;20040;-73
2021/03/01 13:14:28;;;;;;;9.70;5.65;;;18.40;38.80;;;;;;5051772;28;20048;-75
2021/03/01 13:17:32;;;;;;;11.07;5.47;;;18.30;39.20;;;;;;5052124;28;20043;-75
2021/03/01 13:20:36;;;;;;;13.13;8.27;;;18.30;41.40;;;;;;5052170;28;20059;-73
2021/03/01 13:23:41;;;;;;;8.77;4.30;;;18.30;41.00;;;;;;5051482;28;20048;-74
2021/03/01 13:26:46;;;;;;;8.35;3.65;;;18.30;33.40;;;;;;5050087;28;20048;-71
2021/03/01 13:29:50;;;;;;;11.32;4.13;;;18.20;30.70;;;;;;5051566;28;20056;-72
2021/03/01 13:32:57;;;;;;;9.55;5.20;;;18.20;32.90;;;;;;5051619;28;20506;-72
2021/03/01 13:36:01;;;;;;;8.00;4.05;;;18.20;33.10;;;;;;5051687;28;20047;-70
2021/03/01 13:39:05;;;;;;;28.50;19.70;;;18.30;33.80;;;;;;5052166;28;20047;-71
2021/03/01 13:42:09;;;;;;;21.02;15.30;;;18.30;33.80;;;;;;5051606;28;20052;-71
2021/03/01 13:45:15;;;;;;;11.43;5.60;;;18.20;35.10;;;;;;5051373;28;20492;-71
2021/03/01 13:48:19;;;;;;;7.05;4.50;;;18.20;33.80;;;;;;5051306;28;20538;-71
2021/03/01 13:51:23;;;;;;;6.40;3.88;;;18.20;34.70;;;;;;5051399;28;20044;-71
2021/03/01 13:54:27;;;;;;;16.38;4.63;;;18.20;35.70;;;;;;5051042;28;20076;-71
2021/03/01 13:57:31;;;;;;;9.40;4.10;;;18.20;34.90;;;;;;5050495;28;20048;-71
2021/03/01 14:00:35;;;;;;;8.80;4.30;;;18.20;33.10;;;;;;5051560;28;20056;-71
2021/03/01 14:03:39;;;;;;;8.98;4.88;;;18.10;32.10;;;;;;5051249;28;20044;-70
2021/03/01 14:06:43;;;;;;;13.80;4.80;;;18.10;33.90;;;;;;5051245;28;20040;-72
2021/03/01 14:09:47;;;;;;;10.98;4.97;;;18.00;32.90;;;;;;5051278;28;20048;-71
2021/03/01 14:12:51;;;;;;;71.22;48.00;;;18.00;31.60;;;;;;5050559;28;20056;-71
2021/03/01 14:15:55;;;;;;;17.73;8.50;;;18.00;34.40;;;;;;5050869;28;20052;-71
2021/03/01 14:19:01;;;;;;;9.35;5.20;;;18.00;34.80;;;;;;5050870;28;20044;-71
2021/03/01 14:22:06;;;;;;;20.55;6.72;;;17.90;36.40;;;;;;5050929;28;20048;-70
2021/03/01 14:25:11;;;;;;;12.45;5.43;;;17.90;35.30;;;;;;5050920;28;20044;-71
2021/03/01 14:28:15;;;;;;;17.67;9.80;;;17.90;36.40;;;;;;5051385;28;20048;-70
2021/03/01 14:31:20;;;;;;;10.63;5.25;;;17.90;34.30;;;;;;5051139;28;20519;-71
2021/03/01 14:34:24;;;;;;;12.95;4.97;;;17.80;34.70;;;;;;5050417;28;20063;-69
2021/03/01 14:37:28;;;;;;;10.18;4.53;;;17.80;34.40;;;;;;5050762;28;20052;-71
2021/03/01 14:40:32;;;;;;;10.60;5.55;;;17.80;34.60;;;;;;5050859;28;20400;-69
2021/03/01 14:43:41;;;;;;;15.68;5.68;;;17.70;36.40;;;;;;5050776;28;20056;-69
2021/03/01 14:46:45;;;;;;;7.55;4.72;;;17.70;35.90;;;;;;5050407;28;20038;-69
2021/03/01 14:49:49;;;;;;;11.75;5.55;;;17.70;36.80;;;;;;5052861;28;20044;-69
2021/03/01 14:52:53;;;;;;;9.43;4.93;;;17.70;38.00;;;;;;5054853;28;20040;-72
2021/03/01 14:55:58;;;;;;;9.68;4.65;;;17.70;37.80;;;;;;5054535;28;20051;-68
2021/03/01 14:59:01;;;;;;;67.25;43.40;;;17.70;36.30;;;;;;5054652;28;20044;-69
2021/03/01 15:02:05;;;;;;;19.77;13.88;;;17.70;39.40;;;;;;5054327;28;20060;-67
2021/03/01 15:05:10;;;;;;;20.65;9.65;;;17.80;52.70;;;;;;5054343;28;20040;-69
2021/03/01 15:08:15;;;;;;;16.77;6.60;;;17.90;50.00;;;;;;5053365;28;20048;-69
2021/03/01 15:11:19;;;;;;;15.48;5.70;;;17.80;38.50;;;;;;5054163;28;20048;-70
2021/03/01 15:14:23;;;;;;;15.07;5.72;;;17.80;38.20;;;;;;5053968;28;20055;-70
2021/03/01 15:17:27;;;;;;;17.60;5.95;;;17.70;39.30;;;;;;5053919;28;20044;-69
2021/03/01 15:20:31;;;;;;;15.82;5.57;;;17.70;43.50;;;;;;5054185;28;20047;-71
2021/03/01 15:23:35;;;;;;;18.35;6.72;;;17.60;44.30;;;;;;5053967;28;20040;-69
2021/03/01 15:26:39;;;;;;;15.40;5.80;;;17.50;45.00;;;;;;5054033;28;20032;-71
2021/03/01 15:29:43;;;;;;;11.65;5.88;;;17.50;45.80;;;;;;5053697;28;20064;-70
2021/03/01 15:32:47;;;;;;;27.02;6.50;;;17.50;45.90;;;;;;5053275;28;20048;-70
2021/03/01 15:35:52;;;;;;;13.52;6.15;;;17.40;45.00;;;;;;5052644;28;20060;-70
2021/03/01 15:38:56;;;;;;;15.30;6.22;;;17.40;45.70;;;;;;5053429;28;20048;-70
2021/03/01 15:42:00;;;;;;;17.13;6.25;;;17.40;46.30;;;;;;5053520;28;20044;-69
2021/03/01 15:45:05;;;;;;;34.58;7.00;;;17.30;47.30;;;;;;5052951;28;20230;-70
2021/03/01 15:48:09;;;;;;;19.15;6.57;;;17.30;48.80;;;;;;5053568;28;20048;-71
2021/03/01 15:51:14;;;;;;;37.28;7.75;;;17.20;48.80;;;;;;5053828;28;20440;-70
2021/03/01 15:54:18;;;;;;;19.92;6.85;;;17.20;49.70;;;;;;5053474;28;20052;-70
2021/03/01 15:57:21;;;;;;;25.90;7.43;;;17.10;49.40;;;;;;5052635;28;20056;-72
2021/03/01 16:00:26;;;;;;;22.95;9.25;;;17.10;49.00;;;;;;5052507;28;20040;-71